METAR Data
IDs: Format: Raw Decoded Include TAF

Data at: 1408 UTC 19 Jul 2019

METAR for:KHCR (Heber City Muni, UT, US)
Text:KHCR 191355Z AUTO 00000KT 10SM CLR 18/03 A3006 RMK AO2
Temperature: 18.0°C ( 64°F)
Dewpoint: 3.0°C ( 37°F) [RH = 37%]
Pressure (altimeter):30.06 inches Hg (1018.0 mb)
Winds:calm
Visibility:10 or more sm (16+ km)
Ceiling:at least 12,000 feet AGL
Clouds:sky clear below 12,000 feet AGL
QC Flag:automated observation with no human augmentation